createdAt,value
2018-09-05T00:01:01.656Z,19.73
2018-09-05T00:03:36.196Z,19.97
2018-09-05T00:06:12.190Z,19.40
2018-09-05T00:08:46.549Z,21.10
2018-09-05T00:11:25.773Z,20.07
2018-09-05T00:14:01.882Z,19.70
2018-09-05T00:16:36.219Z,18.53
2018-09-05T00:19:16.079Z,21.70
2018-09-05T00:21:50.313Z,20.33
2018-09-05T00:24:26.250Z,20.23
2018-09-05T00:27:01.818Z,21.27
2018-09-05T00:29:36.128Z,19.83
2018-09-05T00:32:11.568Z,20.40
2018-09-05T00:34:46.396Z,20.00
2018-09-05T00:37:20.564Z,21.00
2018-09-05T00:39:54.838Z,20.97
2018-09-05T00:42:29.130Z,20.80
2018-09-05T00:45:03.348Z,21.53
2018-09-05T00:47:41.283Z,20.07
2018-09-05T00:50:16.412Z,21.10
2018-09-05T00:52:51.647Z,20.83
2018-09-05T00:55:25.978Z,20.43
2018-09-05T00:58:01.562Z,19.90
2018-09-05T01:00:35.920Z,18.43
2018-09-05T01:03:10.615Z,19.60
2018-09-05T01:05:45.199Z,19.67
2018-09-05T01:08:20.358Z,19.30
2018-09-05T01:13:36.696Z,18.63
2018-09-05T01:16:12.502Z,20.70
2018-09-05T01:18:48.554Z,19.07
2018-09-05T01:21:23.519Z,17.90
2018-09-05T01:23:59.918Z,20.20
2018-09-05T01:26:35.323Z,19.87
2018-09-05T01:29:11.115Z,18.57
2018-09-05T01:31:48.026Z,20.40
2018-09-05T01:34:24.751Z,20.07
2018-09-05T01:36:59.623Z,17.37
2018-09-05T01:39:33.858Z,18.40
2018-09-05T01:42:09.780Z,20.10
2018-09-05T01:44:45.765Z,18.63
2018-09-05T01:47:20.955Z,18.33
2018-09-05T01:49:56.381Z,19.17
2018-09-05T01:52:31.060Z,20.43
2018-09-05T01:55:05.576Z,18.17
2018-09-05T01:57:41.873Z,17.50
2018-09-05T02:00:21.674Z,19.53
2018-09-05T02:02:56.512Z,19.30
2018-09-05T02:05:34.288Z,19.63
2018-09-05T02:08:09.593Z,19.23
2018-09-05T02:10:45.435Z,18.90
2018-09-05T02:13:21.048Z,17.53
2018-09-05T02:15:55.120Z,19.33
2018-09-05T02:18:29.760Z,20.40
2018-09-05T02:21:04.798Z,18.60
2018-09-05T02:23:49.111Z,18.33
2018-09-05T02:26:23.712Z,21.40
2018-09-05T02:28:59.025Z,19.97
2018-09-05T02:31:38.328Z,19.30
2018-09-05T02:34:13.499Z,18.30
2018-09-05T02:36:50.794Z,18.70
2018-09-05T02:39:26.401Z,19.47
2018-09-05T02:42:02.763Z,19.70
2018-09-05T02:44:37.547Z,20.13
2018-09-05T02:47:13.632Z,20.13
2018-09-05T02:49:49.434Z,21.30
2018-09-05T02:52:24.727Z,21.07
2018-09-05T02:54:59.688Z,23.87
2018-09-05T02:57:36.306Z,21.60
2018-09-05T03:00:12.134Z,21.83
2018-09-05T03:02:51.186Z,20.87
2018-09-05T03:05:26.502Z,21.00
2018-09-05T03:08:01.439Z,21.50
2018-09-05T03:10:37.207Z,21.00
2018-09-05T03:13:12.860Z,20.60
2018-09-05T03:15:48.919Z,20.47
2018-09-05T03:18:23.825Z,20.60
2018-09-05T03:20:58.368Z,21.90
2018-09-05T03:23:35.657Z,20.70
2018-09-05T03:26:11.666Z,21.80
2018-09-05T03:28:46.461Z,20.57
2018-09-05T03:31:21.934Z,21.20
2018-09-05T03:33:59.131Z,19.60
2018-09-05T03:36:34.727Z,20.10
2018-09-05T03:39:12.782Z,21.57
2018-09-05T03:41:48.069Z,20.50
2018-09-05T03:44:22.627Z,24.10
2018-09-05T03:46:57.129Z,22.10
2018-09-05T03:49:31.203Z,22.47
2018-09-05T04:09:48.485Z,21.73
2018-09-05T04:12:24.723Z,19.53
2018-09-05T04:15:00.610Z,20.27
2018-09-05T04:17:35.824Z,20.70
2018-09-05T04:20:11.551Z,21.20
2018-09-05T04:22:57.155Z,20.17
2018-09-05T04:25:31.651Z,20.80
2018-09-05T05:40:31.963Z,22.10
2018-09-05T05:46:04.841Z,19.87
2018-09-05T05:48:40.453Z,23.83
2018-09-05T05:51:16.237Z,22.33
2018-09-05T05:53:50.421Z,23.50
2018-09-05T05:56:26.039Z,21.27
2018-09-05T05:59:01.777Z,23.17
2018-09-05T06:01:37.080Z,21.77
2018-09-05T06:04:12.828Z,22.63
2018-09-05T06:06:47.160Z,23.30
2018-09-05T06:09:30.735Z,22.27
2018-09-05T06:12:06.679Z,21.50
2018-09-05T06:14:43.078Z,22.93
2018-09-05T06:17:18.957Z,20.57
2018-09-05T06:19:53.854Z,20.67
2018-09-05T06:22:29.862Z,22.33
2018-09-05T06:25:05.323Z,22.27
2018-09-05T06:27:39.855Z,22.33
2018-09-05T06:30:17.494Z,21.57
2018-09-05T06:32:52.928Z,21.80
2018-09-05T06:35:27.534Z,22.30
2018-09-05T06:38:02.998Z,20.60
2018-09-05T06:40:37.652Z,19.13
2018-09-05T06:43:12.091Z,22.77
2018-09-05T06:45:47.873Z,22.50
2018-09-05T06:48:22.527Z,22.40
2018-09-05T06:51:03.178Z,23.70
2018-09-05T06:53:39.566Z,21.67
2018-09-05T06:56:14.073Z,22.23
2018-09-05T06:58:49.614Z,22.40
2018-09-05T07:01:24.565Z,23.13
2018-09-05T07:03:59.606Z,22.30
2018-09-05T07:06:35.161Z,23.37
2018-09-05T07:09:11.114Z,25.40
2018-09-05T07:11:46.862Z,24.13
2018-09-05T07:14:22.850Z,24.80
2018-09-05T07:16:57.076Z,25.50
2018-09-05T07:19:31.508Z,26.17
2018-09-05T07:22:14.492Z,25.20
2018-09-05T07:24:49.858Z,26.13
2018-09-05T07:27:24.201Z,25.60
2018-09-05T07:29:59.918Z,27.70
2018-09-05T07:32:35.843Z,27.67
2018-09-05T07:35:12.670Z,27.87
2018-09-05T07:37:53.984Z,26.20
2018-09-05T07:40:32.543Z,25.80
2018-09-05T07:43:09.383Z,26.80
2018-09-05T07:45:45.506Z,26.77
2018-09-05T07:48:21.596Z,25.43
2018-09-05T07:50:57.539Z,26.20
2018-09-05T07:53:32.150Z,27.67
2018-09-05T07:56:07.875Z,24.30
2018-09-05T07:58:43.409Z,27.93
2018-09-05T08:01:18.746Z,28.27
2018-09-05T08:03:54.047Z,27.40
2018-09-05T08:06:29.611Z,27.10
2018-09-05T08:09:06.364Z,29.30
2018-09-05T08:11:42.144Z,28.93
2018-09-05T08:14:17.839Z,31.07
2018-09-05T08:16:52.558Z,29.43
2018-09-05T08:19:27.477Z,28.70
2018-09-05T08:22:02.328Z,28.77
2018-09-05T08:26:02.255Z,29.97
2018-09-05T08:28:37.730Z,31.63
2018-09-05T08:31:13.594Z,32.00
2018-09-05T08:33:48.390Z,30.67
2018-09-05T08:36:24.159Z,28.80
2018-09-05T08:38:59.643Z,29.30
2018-09-05T08:41:34.881Z,28.87
2018-09-05T08:44:09.160Z,27.67
2018-09-05T08:46:44.451Z,29.70
2018-09-05T08:49:19.919Z,29.03
2018-09-05T08:51:57.154Z,30.27
2018-09-05T08:54:34.489Z,27.70
2018-09-05T08:57:09.923Z,28.33
2018-09-05T08:59:44.280Z,27.90
2018-09-05T09:02:18.838Z,26.50
2018-09-05T09:04:53.298Z,24.13
2018-09-05T09:07:27.461Z,24.97
2018-09-05T09:10:03.169Z,26.47
2018-09-05T09:12:38.762Z,25.93
2018-09-05T09:15:13.141Z,26.43
2018-09-05T09:17:47.461Z,25.00
2018-09-05T09:20:21.706Z,24.30
2018-09-05T09:23:02.345Z,23.40
2018-09-05T09:25:37.874Z,23.23
2018-09-05T09:28:13.520Z,25.23
2018-09-05T09:30:49.073Z,23.53
2018-09-05T09:33:24.650Z,23.20
2018-09-05T09:36:00.270Z,23.63
2018-09-05T09:38:36.256Z,22.03
2018-09-05T09:41:10.694Z,21.93
2018-09-05T09:43:45.064Z,23.90
2018-09-05T09:46:20.410Z,22.77
2018-09-05T09:48:54.734Z,19.43
2018-09-05T09:51:30.014Z,22.30
2018-09-05T09:54:04.410Z,24.83
2018-09-05T09:56:39.740Z,21.53
2018-09-05T09:59:15.012Z,19.13
2018-09-05T10:01:55.838Z,20.83
2018-09-05T10:04:36.317Z,21.07
2018-09-05T10:07:16.357Z,19.80
2018-09-05T10:09:54.709Z,19.70
2018-09-05T10:12:35.347Z,18.33
2018-09-05T10:15:13.386Z,17.73
2018-09-05T10:17:54.363Z,17.67
2018-09-05T10:20:28.632Z,20.57
2018-09-05T10:23:04.926Z,18.60
2018-09-05T10:25:39.248Z,18.00
2018-09-05T10:28:14.445Z,18.40
2018-09-05T10:30:50.198Z,17.90
2018-09-05T10:33:25.804Z,16.20
2018-09-05T10:36:01.400Z,18.50
2018-09-05T10:38:36.122Z,17.90
2018-09-05T10:41:10.488Z,17.13
2018-09-05T10:43:45.310Z,18.00
2018-09-05T10:46:20.983Z,15.80
2018-09-05T10:48:55.563Z,16.80
2018-09-05T10:51:36.827Z,16.03
2018-09-05T10:54:11.537Z,14.90
2018-09-05T10:56:46.017Z,14.50
2018-09-05T10:59:21.823Z,15.10
2018-09-05T11:01:56.835Z,13.70
2018-09-05T11:04:31.563Z,14.50
2018-09-05T11:07:05.925Z,14.17
2018-09-05T11:09:41.683Z,14.47
2018-09-05T11:12:17.474Z,14.17
2018-09-05T11:14:52.160Z,14.37
2018-09-05T11:17:26.788Z,13.20
2018-09-05T11:20:02.607Z,13.83
2018-09-05T11:22:38.937Z,12.30
2018-09-05T11:25:14.603Z,13.63
2018-09-05T11:27:49.399Z,14.43
2018-09-05T11:30:25.142Z,13.50
2018-09-05T11:33:01.050Z,11.23
2018-09-05T11:35:42.779Z,11.10
2018-09-05T11:38:17.295Z,11.57
2018-09-05T11:40:52.754Z,11.00
2018-09-05T11:43:27.216Z,11.97
2018-09-05T11:46:03.973Z,11.60
2018-09-05T11:48:38.488Z,11.87
2018-09-05T11:51:14.464Z,12.17
2018-09-05T11:53:48.939Z,11.00
2018-09-05T11:56:23.360Z,10.93
2018-09-05T11:58:59.102Z,10.80
2018-09-05T12:01:33.667Z,11.20
2018-09-05T12:04:09.008Z,9.70
2018-09-05T12:06:43.719Z,9.93
2018-09-05T12:09:19.283Z,10.90
2018-09-05T12:11:54.987Z,10.77
2018-09-05T12:14:30.717Z,9.43
2018-09-05T12:17:13.227Z,9.73
2018-09-05T12:19:47.571Z,11.27
2018-09-05T12:22:23.377Z,11.53
2018-09-05T12:24:58.947Z,12.30
2018-09-05T12:27:33.440Z,10.33
2018-09-05T12:30:12.216Z,9.80
2018-09-05T12:32:47.947Z,11.00
2018-09-05T12:36:51.857Z,10.90
2018-09-05T12:39:26.648Z,11.13
2018-09-05T12:42:01.005Z,11.60
2018-09-05T12:44:35.611Z,10.40
2018-09-05T12:47:11.008Z,10.93
2018-09-05T12:49:52.919Z,10.63
2018-09-05T12:52:27.014Z,12.07
2018-09-05T12:55:01.375Z,11.70
2018-09-05T12:57:36.970Z,11.53
2018-09-05T13:00:11.199Z,10.90
2018-09-05T13:02:45.494Z,11.50
2018-09-05T13:05:26.480Z,11.43
2018-09-05T13:08:02.250Z,10.90
2018-09-05T13:10:37.514Z,11.83
2018-09-05T13:13:12.905Z,11.10
2018-09-05T13:15:48.208Z,10.87
2018-09-05T13:18:22.475Z,10.50
2018-09-05T13:20:56.943Z,10.40
2018-09-05T13:23:32.703Z,10.70
2018-09-05T13:26:06.948Z,10.23
2018-09-05T13:28:41.023Z,10.70
2018-09-05T13:31:16.733Z,9.90
2018-09-05T13:35:20.371Z,11.07
2018-09-05T13:37:55.972Z,11.13
2018-09-05T13:40:37.080Z,11.50
2018-09-05T13:43:12.890Z,11.47
2018-09-05T13:45:47.096Z,10.80
2018-09-05T13:48:22.545Z,11.90
2018-09-05T13:50:57.673Z,11.07
2018-09-05T13:53:31.887Z,11.10
2018-09-05T13:56:06.008Z,11.63
2018-09-05T13:58:41.397Z,11.60
2018-09-05T14:01:15.536Z,10.40
2018-09-05T14:03:50.038Z,11.30
2018-09-05T14:06:24.174Z,11.33
2018-09-05T14:08:58.633Z,11.13
2018-09-05T14:14:14.730Z,9.67
2018-09-05T14:16:49.265Z,11.77
2018-09-05T14:19:23.866Z,10.13
2018-09-05T14:21:58.214Z,10.30
2018-09-05T14:24:33.837Z,9.77
2018-09-05T14:27:08.086Z,10.93
2018-09-05T14:29:42.389Z,9.73
2018-09-05T14:32:17.934Z,10.87
2018-09-05T14:34:52.092Z,10.03
2018-09-05T14:37:27.459Z,9.77
2018-09-05T14:40:01.615Z,10.07
2018-09-05T14:42:35.888Z,9.90
2018-09-05T14:45:10.250Z,10.47
2018-09-05T14:47:45.734Z,10.17
2018-09-05T14:50:21.092Z,10.10
2018-09-05T14:52:55.181Z,10.70
2018-09-05T14:55:29.437Z,9.63
2018-09-05T14:58:04.873Z,10.40
2018-09-05T15:00:39.456Z,10.73
2018-09-05T15:03:13.758Z,9.60
2018-09-05T15:05:48.103Z,9.67
2018-09-05T15:08:22.743Z,10.23
2018-09-05T15:10:58.603Z,9.80
2018-09-05T15:13:34.200Z,9.87
2018-09-05T15:16:08.755Z,11.33
2018-09-05T15:18:42.870Z,9.93
2018-09-05T15:22:46.493Z,10.70
2018-09-05T15:25:22.047Z,9.63
2018-09-05T15:27:56.926Z,10.47
2018-09-05T15:30:36.224Z,10.20
2018-09-05T15:33:12.253Z,9.60
2018-09-05T15:35:47.948Z,9.80
2018-09-05T15:45:28.863Z,9.90
2018-09-05T15:48:03.381Z,9.80
2018-09-05T15:50:39.092Z,11.03
2018-09-05T15:53:13.645Z,10.30
2018-09-05T15:55:48.435Z,10.30
2018-09-05T15:58:24.194Z,10.97
2018-09-05T16:00:59.461Z,10.63
2018-09-05T16:03:33.818Z,10.60
2018-09-05T16:06:08.287Z,10.90
2018-09-05T16:08:43.823Z,10.37
2018-09-05T16:11:19.178Z,10.00
2018-09-05T16:13:55.463Z,11.07
2018-09-05T16:16:29.899Z,10.53
2018-09-05T16:19:04.435Z,10.63
2018-09-05T16:21:38.880Z,11.60
2018-09-05T16:24:14.747Z,11.40
2018-09-05T16:26:49.327Z,11.27
2018-09-05T16:29:23.851Z,10.70
2018-09-05T16:31:59.689Z,11.53
2018-09-05T16:34:33.951Z,10.80
2018-09-05T16:37:21.170Z,10.30
2018-09-05T16:39:55.651Z,11.10
2018-09-05T16:42:30.671Z,11.00
2018-09-05T16:45:06.412Z,12.10
2018-09-05T16:47:41.195Z,11.87
2018-09-05T16:50:17.200Z,10.03
2018-09-05T16:52:52.759Z,10.40
2018-09-05T16:55:27.167Z,11.33
2018-09-05T16:58:03.124Z,10.43
2018-09-05T17:00:37.597Z,11.37
2018-09-05T17:03:12.288Z,11.73
2018-09-05T17:05:48.651Z,12.10
2018-09-05T17:08:23.543Z,11.50
2018-09-05T17:11:00.529Z,12.23
2018-09-05T17:13:36.003Z,11.70
2018-09-05T17:16:10.299Z,11.83
2018-09-05T17:18:44.756Z,13.00
2018-09-05T17:21:19.231Z,12.50
2018-09-05T17:23:55.213Z,12.20
2018-09-05T17:26:29.654Z,11.40
2018-09-05T17:29:04.631Z,11.53
2018-09-05T17:31:40.091Z,12.53
2018-09-05T17:34:14.381Z,12.10
2018-09-05T17:36:50.203Z,12.90
2018-09-05T17:39:27.299Z,12.63
2018-09-05T17:42:02.898Z,13.73
2018-09-05T17:44:38.492Z,12.50
2018-09-05T17:47:12.793Z,11.97
2018-09-05T17:49:52.104Z,12.67
2018-09-05T17:52:27.851Z,12.47
2018-09-05T17:55:09.738Z,13.20
2018-09-05T17:57:45.407Z,13.57
2018-09-05T18:00:19.849Z,13.67
2018-09-05T18:02:55.769Z,12.10
2018-09-05T18:05:30.660Z,12.40
2018-09-05T18:08:05.263Z,12.70
2018-09-05T18:10:40.652Z,13.03
2018-09-05T18:13:20.675Z,14.77
2018-09-05T18:15:55.483Z,16.80
2018-09-05T18:18:30.233Z,18.17
2018-09-05T18:21:04.679Z,15.50
2018-09-05T18:23:40.037Z,15.50
2018-09-05T18:26:14.827Z,16.77
2018-09-05T18:28:49.179Z,18.43
2018-09-05T18:31:24.980Z,18.10
2018-09-05T18:33:59.529Z,18.60
2018-09-05T18:36:35.875Z,18.73
2018-09-05T18:39:11.553Z,17.03
2018-09-05T18:41:48.282Z,17.33
2018-09-05T18:44:24.359Z,17.40
2018-09-05T18:47:00.067Z,16.67
2018-09-05T18:49:34.652Z,18.07
2018-09-05T18:52:10.311Z,19.20
2018-09-05T18:54:44.652Z,17.70
2018-09-05T18:57:23.812Z,15.90
2018-09-05T18:59:58.525Z,17.60
2018-09-05T19:02:36.468Z,21.53
2018-09-05T19:05:12.293Z,19.53
2018-09-05T19:07:48.119Z,18.30
2018-09-05T19:10:24.819Z,19.33
2018-09-05T19:13:01.699Z,19.47
2018-09-05T19:15:36.608Z,20.20
2018-09-05T19:18:11.459Z,20.67
2018-09-05T19:20:50.474Z,20.07
2018-09-05T19:23:26.690Z,21.10
2018-09-05T19:26:01.537Z,19.77
2018-09-05T19:28:36.157Z,20.20
2018-09-05T19:31:12.152Z,20.10
2018-09-05T19:33:47.068Z,18.03
2018-09-05T19:36:23.204Z,19.77
2018-09-05T19:38:59.371Z,20.73
2018-09-05T19:41:35.320Z,20.17
2018-09-05T19:44:11.839Z,20.67
2018-09-05T19:46:46.638Z,25.60
2018-09-05T19:49:21.274Z,24.30
2018-09-05T19:51:57.042Z,25.33
2018-09-05T19:54:31.574Z,21.10
2018-09-05T19:57:10.048Z,20.43
2018-09-05T19:59:45.799Z,20.13
2018-09-05T20:02:20.671Z,21.20
2018-09-05T20:04:55.028Z,18.87
2018-09-05T20:07:29.735Z,18.80
2018-09-05T20:10:06.427Z,19.00
2018-09-05T20:12:46.348Z,17.40
2018-09-05T20:15:21.100Z,18.67
2018-09-05T20:17:56.658Z,20.27
2018-09-05T20:20:31.116Z,17.87
2018-09-05T20:23:06.899Z,20.07
2018-09-05T20:25:42.580Z,17.83
2018-09-05T20:28:18.603Z,22.33
2018-09-05T20:30:54.524Z,23.07
2018-09-05T20:33:30.196Z,18.60
2018-09-05T20:36:06.925Z,15.37
2018-09-05T20:38:42.677Z,16.43
2018-09-05T20:41:17.903Z,16.00
2018-09-05T20:43:52.332Z,17.03
2018-09-05T20:46:27.991Z,16.10
2018-09-05T20:49:04.972Z,17.37
2018-09-05T20:51:43.836Z,18.07
2018-09-05T20:54:18.360Z,17.87
2018-09-05T20:56:54.543Z,18.07
2018-09-05T20:59:30.235Z,16.97
2018-09-05T21:02:05.311Z,18.13
2018-09-05T21:04:39.957Z,16.03
2018-09-05T21:07:14.711Z,16.53
2018-09-05T21:09:57.673Z,16.30
2018-09-05T21:12:33.708Z,16.97
2018-09-05T21:15:08.000Z,18.13
2018-09-05T21:17:42.994Z,17.20
2018-09-05T21:20:21.084Z,16.27
2018-09-05T21:22:56.568Z,17.10
2018-09-05T21:25:32.591Z,15.97
2018-09-05T21:28:09.683Z,16.00
2018-09-05T21:30:45.243Z,18.53
2018-09-05T21:33:19.804Z,17.80
2018-09-05T21:35:55.582Z,17.57
2018-09-05T21:38:31.131Z,16.53
2018-09-05T21:41:05.597Z,16.00
2018-09-05T21:43:39.984Z,16.17
2018-09-05T21:46:15.420Z,17.50
2018-09-05T21:48:51.160Z,18.70
2018-09-05T21:51:26.844Z,32.17
2018-09-05T21:54:02.468Z,24.63
2018-09-05T21:56:36.770Z,20.17
2018-09-05T21:59:13.506Z,20.47
2018-09-05T22:01:47.972Z,18.77
2018-09-05T22:04:22.580Z,17.40
2018-09-05T22:06:57.468Z,17.10
2018-09-05T22:09:44.571Z,17.57
2018-09-05T22:12:20.620Z,16.93
2018-09-05T22:14:55.004Z,18.13
2018-09-05T22:17:29.404Z,17.37
2018-09-05T22:20:03.873Z,17.47
2018-09-05T22:22:39.633Z,17.07
2018-09-05T22:25:15.083Z,17.87
2018-09-05T22:35:14.965Z,18.20
2018-09-05T22:37:51.721Z,19.73
2018-09-05T22:40:30.491Z,17.67
2018-09-05T22:43:16.223Z,18.40
2018-09-05T22:46:01.983Z,19.03
2018-09-05T22:49:21.762Z,22.90
2018-09-05T22:52:45.745Z,17.20
2018-09-05T22:55:38.485Z,17.93
2018-09-05T22:58:26.353Z,18.00
2018-09-05T23:01:12.929Z,17.87
2018-09-05T23:03:57.317Z,16.93
2018-09-05T23:07:15.923Z,18.83
2018-09-05T23:10:03.443Z,18.47
